sensor_id;sensor_type;location;lat;lon;timestamp;temperature;humidity
63397;SHT31;49532;45.068;38.928;2022-07-01T06:36:54;37.56;26.53
63397;SHT31;49532;45.068;38.928;2022-07-01T06:41:56;37.93;26.43
63397;SHT31;49532;45.068;38.928;2022-07-01T06:46:57;38.00;26.00
63397;SHT31;49532;45.068;38.928;2022-07-01T06:51:58;37.91;25.06
63397;SHT31;49532;45.068;38.928;2022-07-01T06:56:59;37.93;25.04
63397;SHT31;49532;45.068;38.928;2022-07-01T07:02:00;38.00;25.57
63397;SHT31;49532;45.068;38.928;2022-07-01T07:07:02;37.98;25.64
63397;SHT31;49532;45.068;38.928;2022-07-01T07:12:03;37.97;25.24
63397;SHT31;49532;45.068;38.928;2022-07-01T07:17:04;38.04;25.49
63397;SHT31;49532;45.068;38.928;2022-07-01T07:22:05;37.96;25.55
63397;SHT31;49532;45.068;38.928;2022-07-01T07:27:07;37.83;26.13
63397;SHT31;49532;45.068;38.928;2022-07-01T07:32:08;37.70;26.01
63397;SHT31;49532;45.068;38.928;2022-07-01T07:37:09;37.53;26.11
63397;SHT31;49532;45.068;38.928;2022-07-01T07:42:10;37.47;25.70
63397;SHT31;49532;45.068;38.928;2022-07-01T07:47:11;37.29;25.70
63397;SHT31;49532;45.068;38.928;2022-07-01T07:52:12;37.08;26.30
63397;SHT31;49532;45.068;38.928;2022-07-01T07:57:14;36.82;26.30
63397;SHT31;49532;45.068;38.928;2022-07-01T08:02:15;36.57;26.16
63397;SHT31;49532;45.068;38.928;2022-07-01T08:07:16;36.40;26.15
63397;SHT31;49532;45.068;38.928;2022-07-01T08:12:17;36.13;26.69
63397;SHT31;49532;45.068;38.928;2022-07-01T08:17:18;35.96;27.37
63397;SHT31;49532;45.068;38.928;2022-07-01T08:22:19;35.75;26.97
63397;SHT31;49532;45.068;38.928;2022-07-01T08:27:20;35.49;27.17
63397;SHT31;49532;45.068;38.928;2022-07-01T08:32:21;35.31;27.39
63397;SHT31;49532;45.068;38.928;2022-07-01T08:37:25;35.19;27.74
63397;SHT31;49532;45.068;38.928;2022-07-01T08:42:26;35.08;27.34
63397;SHT31;49532;45.068;38.928;2022-07-01T08:47:27;34.86;27.97
63397;SHT31;49532;45.068;38.928;2022-07-01T08:52:28;34.73;27.64
63397;SHT31;49532;45.068;38.928;2022-07-01T08:57:30;34.37;26.77
63397;SHT31;49532;45.068;38.928;2022-07-01T09:02:50;34.17;28.28
63397;SHT31;49532;45.068;38.928;2022-07-01T09:08:05;34.02;29.30
63397;SHT31;49532;45.068;38.928;2022-07-01T09:13:08;34.08;28.93
63397;SHT31;49532;45.068;38.928;2022-07-01T09:18:15;34.12;28.07
63397;SHT31;49532;45.068;38.928;2022-07-01T09:23:18;34.06;28.46
63397;SHT31;49532;45.068;38.928;2022-07-01T09:28:24;34.06;29.08
63397;SHT31;49532;45.068;38.928;2022-07-01T09:33:27;33.95;28.49
63397;SHT31;49532;45.068;38.928;2022-07-01T09:38:29;33.81;29.23
63397;SHT31;49532;45.068;38.928;2022-07-01T09:43:32;33.69;29.75
63397;SHT31;49532;45.068;38.928;2022-07-01T09:53:35;33.33;29.16
63397;SHT31;49532;45.068;38.928;2022-07-01T09:58:36;33.17;30.71
63397;SHT31;49532;45.068;38.928;2022-07-01T10:03:39;33.07;31.59
63397;SHT31;49532;45.068;38.928;2022-07-01T10:14:11;32.99;30.61
63397;SHT31;49532;45.068;38.928;2022-07-01T10:24:21;32.82;31.64
63397;SHT31;49532;45.068;38.928;2022-07-01T10:34:40;32.79;31.42
63397;SHT31;49532;45.068;38.928;2022-07-01T10:39:54;32.72;32.63
63397;SHT31;49532;45.068;38.928;2022-07-01T10:45:11;32.58;32.69
63397;SHT31;49532;45.068;38.928;2022-07-01T10:50:14;32.58;32.08
63397;SHT31;49532;45.068;38.928;2022-07-01T10:55:35;32.53;31.44
63397;SHT31;49532;45.068;38.928;2022-07-01T11:00:41;32.46;31.43
63397;SHT31;49532;45.068;38.928;2022-07-01T11:05:44;32.38;32.04
63397;SHT31;49532;45.068;38.928;2022-07-01T11:10:50;32.35;32.64
63397;SHT31;49532;45.068;38.928;2022-07-01T11:15:51;32.27;32.13
63397;SHT31;49532;45.068;38.928;2022-07-01T11:21:02;32.24;33.31
63397;SHT31;49532;45.068;38.928;2022-07-01T11:26:03;32.17;32.44
63397;SHT31;49532;45.068;38.928;2022-07-01T11:31:04;32.21;33.51
63397;SHT31;49532;45.068;38.928;2022-07-01T11:36:05;32.25;33.13
63397;SHT31;49532;45.068;38.928;2022-07-01T11:41:25;32.12;32.71
63397;SHT31;49532;45.068;38.928;2022-07-01T11:46:26;31.95;33.11
63397;SHT31;49532;45.068;38.928;2022-07-01T11:51:27;31.84;32.80
63397;SHT31;49532;45.068;38.928;2022-07-01T11:56:36;31.80;32.68
63397;SHT31;49532;45.068;38.928;2022-07-01T12:01:39;31.76;33.95
63397;SHT31;49532;45.068;38.928;2022-07-01T12:06:40;31.74;33.57
63397;SHT31;49532;45.068;38.928;2022-07-01T12:11:47;31.70;33.43
63397;SHT31;49532;45.068;38.928;2022-07-01T12:17:14;31.64;33.49
63397;SHT31;49532;45.068;38.928;2022-07-01T12:22:17;31.66;33.09
63397;SHT31;49532;45.068;38.928;2022-07-01T12:27:23;31.64;34.38
63397;SHT31;49532;45.068;38.928;2022-07-01T12:32:26;31.69;35.29
63397;SHT31;49532;45.068;38.928;2022-07-01T12:37:33;31.67;34.92
63397;SHT31;49532;45.068;38.928;2022-07-01T12:42:43;31.61;34.66
63397;SHT31;49532;45.068;38.928;2022-07-01T12:47:52;31.60;34.81
63397;SHT31;49532;45.068;38.928;2022-07-01T12:53:24;31.54;35.40
63397;SHT31;49532;45.068;38.928;2022-07-01T12:58:26;31.50;35.27
63397;SHT31;49532;45.068;38.928;2022-07-01T13:03:28;31.46;35.04
63397;SHT31;49532;45.068;38.928;2022-07-01T13:08:29;31.34;35.48
63397;SHT31;49532;45.068;38.928;2022-07-01T13:13:30;31.34;35.52
63397;SHT31;49532;45.068;38.928;2022-07-01T13:18:31;31.32;35.33
63397;SHT31;49532;45.068;38.928;2022-07-01T13:23:32;31.25;35.12
63397;SHT31;49532;45.068;38.928;2022-07-01T13:28:33;31.19;35.29
63397;SHT31;49532;45.068;38.928;2022-07-01T13:33:34;30.99;34.84
63397;SHT31;49532;45.068;38.928;2022-07-01T13:38:35;30.89;35.78
63397;SHT31;49532;45.068;38.928;2022-07-01T13:43:36;30.76;35.39
63397;SHT31;49532;45.068;38.928;2022-07-01T13:48:37;30.72;35.70
63397;SHT31;49532;45.068;38.928;2022-07-01T13:53:39;30.60;35.67
63397;SHT31;49532;45.068;38.928;2022-07-01T13:58:40;30.55;35.50
63397;SHT31;49532;45.068;38.928;2022-07-01T14:03:41;30.54;36.58
63397;SHT31;49532;45.068;38.928;2022-07-01T14:08:43;30.60;35.79
63397;SHT31;49532;45.068;38.928;2022-07-01T14:13:44;30.65;36.01
63397;SHT31;49532;45.068;38.928;2022-07-01T14:18:45;30.62;36.22
63397;SHT31;49532;45.068;38.928;2022-07-01T14:23:46;30.48;36.12
63397;SHT31;49532;45.068;38.928;2022-07-01T14:28:48;30.33;36.33
63397;SHT31;49532;45.068;38.928;2022-07-01T14:33:48;30.21;36.57
63397;SHT31;49532;45.068;38.928;2022-07-01T14:38:49;30.20;36.51
63397;SHT31;49532;45.068;38.928;2022-07-01T14:43:50;30.23;36.94
63397;SHT31;49532;45.068;38.928;2022-07-01T14:48:51;30.34;37.28
63397;SHT31;49532;45.068;38.928;2022-07-01T14:53:52;30.33;37.96
63397;SHT31;49532;45.068;38.928;2022-07-01T14:58:53;30.44;38.28
63397;SHT31;49532;45.068;38.928;2022-07-01T15:03:54;30.42;38.37
63397;SHT31;49532;45.068;38.928;2022-07-01T15:08:55;30.45;38.34
63397;SHT31;49532;45.068;38.928;2022-07-01T15:13:56;30.33;38.53
63397;SHT31;49532;45.068;38.928;2022-07-01T15:18:57;30.25;38.90
63397;SHT31;49532;45.068;38.928;2022-07-01T15:23:59;30.14;39.01
63397;SHT31;49532;45.068;38.928;2022-07-01T15:29:00;30.03;39.24
63397;SHT31;49532;45.068;38.928;2022-07-01T15:34:01;29.90;38.42
63397;SHT31;49532;45.068;38.928;2022-07-01T15:39:02;29.73;38.19
63397;SHT31;49532;45.068;38.928;2022-07-01T15:44:04;29.61;39.19
63397;SHT31;49532;45.068;38.928;2022-07-01T15:49:06;29.49;39.00
63397;SHT31;49532;45.068;38.928;2022-07-01T15:54:12;29.39;38.49
63397;SHT31;49532;45.068;38.928;2022-07-01T15:59:13;29.26;38.78
63397;SHT31;49532;45.068;38.928;2022-07-01T16:04:14;29.14;39.16
63397;SHT31;49532;45.068;38.928;2022-07-01T16:09:16;29.05;39.10
63397;SHT31;49532;45.068;38.928;2022-07-01T16:14:19;28.98;39.50
63397;SHT31;49532;45.068;38.928;2022-07-01T16:19:22;28.86;39.28
63397;SHT31;49532;45.068;38.928;2022-07-01T16:24:23;28.75;39.61
63397;SHT31;49532;45.068;38.928;2022-07-01T16:29:25;28.63;39.98
63397;SHT31;49532;45.068;38.928;2022-07-01T16:34:27;28.52;39.80
63397;SHT31;49532;45.068;38.928;2022-07-01T16:39:29;28.40;40.31
63397;SHT31;49532;45.068;38.928;2022-07-01T16:50:19;28.09;40.83
63397;SHT31;49532;45.068;38.928;2022-07-01T16:55:29;27.92;41.25
63397;SHT31;49532;45.068;38.928;2022-07-01T17:00:31;27.72;41.71
63397;SHT31;49532;45.068;38.928;2022-07-01T17:05:32;27.59;42.22
63397;SHT31;49532;45.068;38.928;2022-07-01T17:10:35;27.41;42.66
63397;SHT31;49532;45.068;38.928;2022-07-01T17:15:36;27.27;42.50
63397;SHT31;49532;45.068;38.928;2022-07-01T17:20:38;27.17;43.91
63397;SHT31;49532;45.068;38.928;2022-07-01T17:25:55;27.07;43.63
63397;SHT31;49532;45.068;38.928;2022-07-01T17:36:12;26.95;43.57
63397;SHT31;49532;45.068;38.928;2022-07-01T17:41:17;26.83;42.97
63397;SHT31;49532;45.068;38.928;2022-07-01T17:46:18;26.75;44.24
63397;SHT31;49532;45.068;38.928;2022-07-01T17:51:20;26.62;43.49
63397;SHT31;49532;45.068;38.928;2022-07-01T17:56:22;26.45;43.63
63397;SHT31;49532;45.068;38.928;2022-07-01T18:01:24;26.28;44.32
63397;SHT31;49532;45.068;38.928;2022-07-01T18:06:27;26.24;45.35
63397;SHT31;49532;45.068;38.928;2022-07-01T18:12:05;26.21;44.26
63397;SHT31;49532;45.068;38.928;2022-07-01T18:22:27;26.01;45.47
63397;SHT31;49532;45.068;38.928;2022-07-01T18:27:55;25.91;45.10
63397;SHT31;49532;45.068;38.928;2022-07-01T18:33:13;25.83;45.63
63397;SHT31;49532;45.068;38.928;2022-07-01T18:38:18;25.79;46.44
63397;SHT31;49532;45.068;38.928;2022-07-01T18:43:20;25.67;45.59
63397;SHT31;49532;45.068;38.928;2022-07-01T18:48:21;25.59;45.88
63397;SHT31;49532;45.068;38.928;2022-07-01T18:53:22;25.46;45.59
63397;SHT31;49532;45.068;38.928;2022-07-01T18:58:23;25.35;45.70
63397;SHT31;49532;45.068;38.928;2022-07-01T19:03:24;25.20;45.81
63397;SHT31;49532;45.068;38.928;2022-07-01T19:08:25;25.07;46.04
63397;SHT31;49532;45.068;38.928;2022-07-01T19:13:26;24.96;46.48
63397;SHT31;49532;45.068;38.928;2022-07-01T19:18:27;24.84;47.05
63397;SHT31;49532;45.068;38.928;2022-07-01T19:23:28;24.71;47.74
63397;SHT31;49532;45.068;38.928;2022-07-01T19:28:30;24.61;48.41
63397;SHT31;49532;45.068;38.928;2022-07-01T19:33:31;24.56;49.11
63397;SHT31;49532;45.068;38.928;2022-07-01T19:38:32;24.47;50.09
63397;SHT31;49532;45.068;38.928;2022-07-01T19:43:34;24.33;50.95
63397;SHT31;49532;45.068;38.928;2022-07-01T19:48:35;24.23;51.98
63397;SHT31;49532;45.068;38.928;2022-07-01T19:53:36;24.13;52.83
63397;SHT31;49532;45.068;38.928;2022-07-01T19:58:37;23.98;53.57
63397;SHT31;49532;45.068;38.928;2022-07-01T20:03:38;23.92;54.25
63397;SHT31;49532;45.068;38.928;2022-07-01T20:08:39;23.85;54.71
63397;SHT31;49532;45.068;38.928;2022-07-01T20:13:40;23.81;55.29
63397;SHT31;49532;45.068;38.928;2022-07-01T20:18:42;23.66;55.88
63397;SHT31;49532;45.068;38.928;2022-07-01T20:23:43;23.55;56.94
63397;SHT31;49532;45.068;38.928;2022-07-01T20:28:44;23.55;57.50
63397;SHT31;49532;45.068;38.928;2022-07-01T20:33:46;23.52;57.46
63397;SHT31;49532;45.068;38.928;2022-07-01T20:38:47;23.47;57.51
63397;SHT31;49532;45.068;38.928;2022-07-01T20:43:48;23.37;57.74
63397;SHT31;49532;45.068;38.928;2022-07-01T20:48:49;23.31;58.23
63397;SHT31;49532;45.068;38.928;2022-07-01T20:53:50;23.30;57.95
63397;SHT31;49532;45.068;38.928;2022-07-01T20:58:51;23.27;57.99
